createdAt,value
2018-09-14T00:01:00.525Z,13.70
2018-09-14T00:03:28.942Z,13.50
2018-09-14T00:05:57.319Z,13.50
2018-09-14T00:08:25.865Z,13.50
2018-09-14T00:10:54.199Z,13.40
2018-09-14T00:13:22.528Z,13.40
2018-09-14T00:15:51.101Z,13.40
2018-09-14T00:18:19.717Z,13.40
2018-09-14T00:20:48.196Z,13.40
2018-09-14T00:23:16.513Z,13.50
2018-09-14T00:25:44.887Z,13.50
2018-09-14T00:28:13.345Z,13.60
2018-09-14T00:30:42.074Z,13.60
2018-09-14T00:33:10.413Z,13.60
2018-09-14T00:35:38.728Z,13.70
2018-09-14T00:38:07.362Z,13.70
2018-09-14T00:40:35.734Z,13.60
2018-09-14T00:43:04.757Z,13.60
2018-09-14T00:45:33.118Z,13.70
2018-09-14T00:48:01.802Z,13.60
2018-09-14T00:50:30.140Z,13.70
2018-09-14T00:52:58.433Z,13.80
2018-09-14T00:55:26.861Z,13.80
2018-09-14T00:57:55.468Z,13.80
2018-09-14T01:00:23.816Z,13.80
2018-09-14T01:02:53.327Z,13.80
2018-09-14T01:05:22.401Z,13.70
2018-09-14T01:07:51.331Z,13.80
2018-09-14T01:10:20.718Z,13.70
2018-09-14T01:12:49.354Z,13.70
2018-09-14T01:15:17.772Z,13.80
2018-09-14T01:17:46.088Z,13.70
2018-09-14T01:20:14.491Z,13.60
2018-09-14T01:22:42.751Z,13.60
2018-09-14T01:25:11.106Z,13.50
2018-09-14T01:27:39.453Z,13.40
2018-09-14T01:30:07.797Z,13.40
2018-09-14T01:32:36.143Z,13.40
2018-09-14T01:35:08.766Z,13.40
2018-09-14T01:37:37.104Z,13.30
2018-09-14T01:40:05.525Z,13.30
2018-09-14T01:42:33.879Z,13.30
2018-09-14T01:45:02.454Z,13.30
2018-09-14T01:47:30.768Z,13.20
2018-09-14T01:49:59.157Z,13.30
2018-09-14T01:52:27.465Z,13.30
2018-09-14T01:54:55.804Z,13.30
2018-09-14T01:57:24.171Z,13.40
2018-09-14T01:59:52.634Z,13.40
2018-09-14T02:02:21.181Z,13.30
2018-09-14T02:04:50.669Z,13.40
2018-09-14T02:07:19.076Z,13.40
2018-09-14T02:09:47.513Z,13.40
2018-09-14T02:12:15.862Z,13.30
2018-09-14T02:14:44.410Z,13.40
2018-09-14T02:17:13.185Z,13.40
2018-09-14T02:19:41.635Z,13.50
2018-09-14T02:22:10.203Z,13.50
2018-09-14T02:24:38.596Z,13.60
2018-09-14T02:27:06.937Z,13.50
2018-09-14T02:29:35.289Z,13.50
2018-09-14T02:32:03.911Z,13.50
2018-09-14T02:34:32.252Z,13.50
2018-09-14T02:37:00.642Z,13.30
2018-09-14T02:39:28.999Z,13.20
2018-09-14T02:41:57.322Z,13.20
2018-09-14T02:44:25.669Z,13.20
2018-09-14T02:46:54.001Z,13.30
2018-09-14T02:49:22.343Z,13.30
2018-09-14T02:51:50.646Z,13.30
2018-09-14T02:54:19.023Z,13.20
2018-09-14T02:56:47.444Z,13.20
2018-09-14T02:59:16.009Z,13.20
2018-09-14T03:01:44.360Z,13.20
2018-09-14T03:04:12.909Z,13.30
2018-09-14T03:06:41.299Z,13.40
2018-09-14T03:09:10.035Z,13.30
2018-09-14T03:11:38.759Z,13.40
2018-09-14T03:14:07.309Z,13.40
2018-09-14T03:16:35.644Z,13.30
2018-09-14T03:19:04.598Z,13.20
2018-09-14T03:21:32.906Z,13.20
2018-09-14T03:24:01.312Z,13.20
2018-09-14T03:26:29.641Z,13.20
2018-09-14T03:28:57.962Z,13.10
2018-09-14T03:31:26.282Z,13.20
2018-09-14T03:33:54.802Z,13.30
2018-09-14T03:36:23.143Z,13.20
2018-09-14T03:38:51.456Z,13.30
2018-09-14T03:41:19.785Z,13.30
2018-09-14T03:43:48.165Z,13.30
2018-09-14T03:46:16.478Z,13.30
2018-09-14T03:48:44.982Z,13.30
2018-09-14T03:51:13.327Z,13.30
2018-09-14T03:53:41.676Z,13.20
2018-09-14T03:56:10.128Z,13.20
2018-09-14T03:58:38.453Z,13.20
2018-09-14T04:01:06.965Z,13.10
2018-09-14T04:03:35.275Z,13.10
2018-09-14T04:06:03.990Z,13.10
2018-09-14T04:08:32.366Z,13.00
2018-09-14T04:11:00.733Z,13.00
2018-09-14T04:13:29.078Z,13.10
2018-09-14T04:15:57.390Z,13.00
2018-09-14T04:18:25.720Z,12.90
2018-09-14T04:20:54.262Z,13.00
2018-09-14T04:23:22.719Z,13.00
2018-09-14T04:25:51.019Z,12.90
2018-09-14T04:28:19.371Z,13.00
2018-09-14T04:30:47.754Z,13.00
2018-09-14T04:33:16.145Z,13.10
2018-09-14T04:35:44.602Z,13.10
2018-09-14T04:38:12.996Z,13.20
2018-09-14T04:40:41.292Z,13.20
2018-09-14T04:43:09.607Z,13.20
2018-09-14T04:45:37.975Z,13.20
2018-09-14T04:48:06.262Z,13.30
2018-09-14T04:50:34.622Z,13.30
2018-09-14T04:53:03.531Z,13.20
2018-09-14T04:55:32.498Z,13.10
2018-09-14T04:58:00.859Z,13.00
2018-09-14T05:00:29.210Z,13.20
2018-09-14T05:02:57.697Z,13.10
2018-09-14T05:05:26.073Z,13.20
2018-09-14T05:07:54.465Z,13.20
2018-09-14T05:10:22.841Z,13.20
2018-09-14T05:12:51.199Z,13.20
2018-09-14T05:15:19.541Z,13.20
2018-09-14T05:17:47.869Z,13.20
2018-09-14T05:20:16.233Z,13.20
2018-09-14T05:22:44.786Z,13.20
2018-09-14T05:25:13.267Z,13.30
2018-09-14T05:27:41.900Z,13.30
2018-09-14T05:30:10.245Z,13.40
2018-09-14T05:32:38.561Z,13.40
2018-09-14T05:35:06.982Z,13.40
2018-09-14T05:37:35.330Z,13.40
2018-09-14T05:40:03.794Z,13.30
2018-09-14T05:42:32.131Z,13.10
2018-09-14T05:45:00.528Z,13.20
2018-09-14T05:47:28.894Z,13.20
2018-09-14T05:49:57.236Z,13.20
2018-09-14T05:52:25.606Z,13.20
2018-09-14T05:54:53.909Z,13.10
2018-09-14T05:57:22.308Z,13.20
2018-09-14T05:59:51.091Z,13.30
2018-09-14T06:02:19.413Z,13.60
2018-09-14T06:04:47.755Z,13.60
2018-09-14T06:07:16.128Z,13.70
2018-09-14T06:09:44.508Z,13.60
2018-09-14T06:12:12.865Z,13.60
2018-09-14T06:14:41.214Z,13.60
2018-09-14T06:17:09.622Z,13.70
2018-09-14T06:19:37.904Z,13.80
2018-09-14T06:22:06.292Z,13.90
2018-09-14T06:24:34.641Z,13.90
2018-09-14T06:27:02.991Z,13.90
2018-09-14T06:29:31.323Z,14.00
2018-09-14T06:31:59.667Z,14.20
2018-09-14T06:34:28.140Z,14.30
2018-09-14T06:36:56.459Z,14.40
2018-09-14T06:39:24.948Z,14.40
2018-09-14T06:41:53.329Z,14.50
2018-09-14T06:44:21.716Z,14.40
2018-09-14T06:46:50.097Z,14.30
2018-09-14T06:49:18.521Z,14.50
2018-09-14T06:51:46.898Z,14.40
2018-09-14T06:54:15.387Z,14.40
2018-09-14T06:56:43.709Z,14.40
2018-09-14T06:59:12.111Z,14.30
2018-09-14T07:01:40.523Z,14.40
2018-09-14T07:04:08.897Z,14.40
2018-09-14T07:06:37.277Z,14.30
2018-09-14T07:09:07.688Z,14.40
2018-09-14T07:11:36.305Z,14.60
2018-09-14T07:14:05.062Z,14.60
2018-09-14T07:16:33.419Z,14.50
2018-09-14T07:19:01.886Z,14.50
2018-09-14T07:21:30.273Z,14.50
2018-09-14T07:23:58.633Z,14.60
2018-09-14T07:26:27.264Z,14.70
2018-09-14T07:28:55.618Z,14.80
2018-09-14T07:31:24.012Z,14.90
2018-09-14T07:33:52.382Z,15.10
2018-09-14T07:36:20.939Z,15.30
2018-09-14T07:38:49.272Z,15.20
2018-09-14T07:41:17.592Z,15.30
2018-09-14T07:43:45.962Z,15.40
2018-09-14T07:46:14.343Z,15.40
2018-09-14T07:48:42.706Z,15.50
2018-09-14T07:51:11.043Z,15.60
2018-09-14T07:53:39.430Z,15.80
2018-09-14T07:56:07.772Z,15.80
2018-09-14T07:58:36.145Z,15.90
2018-09-14T08:01:04.563Z,15.80
2018-09-14T08:03:32.940Z,15.70
2018-09-14T08:06:01.364Z,15.70
2018-09-14T08:08:29.741Z,15.80
2018-09-14T08:10:58.144Z,15.70
2018-09-14T08:13:26.576Z,15.90
2018-09-14T08:15:54.933Z,15.90
2018-09-14T08:18:23.219Z,15.80
2018-09-14T08:20:51.570Z,15.80
2018-09-14T08:23:19.922Z,15.80
2018-09-14T08:25:48.333Z,15.90
2018-09-14T08:28:16.815Z,16.00
2018-09-14T08:30:45.170Z,16.00
2018-09-14T08:33:13.636Z,16.00
2018-09-14T08:35:42.028Z,16.10
2018-09-14T08:38:12.073Z,16.30
2018-09-14T08:40:40.430Z,16.30
2018-09-14T08:43:08.768Z,16.30
2018-09-14T08:45:37.119Z,16.30
2018-09-14T08:48:05.700Z,16.60
2018-09-14T08:50:34.096Z,16.60
2018-09-14T08:53:03.570Z,16.70
2018-09-14T08:55:32.274Z,16.70
2018-09-14T08:58:00.630Z,16.90
2018-09-14T09:00:29.078Z,17.00
2018-09-14T09:02:57.668Z,17.10
2018-09-14T09:05:26.109Z,17.20
2018-09-14T09:07:54.454Z,17.50
2018-09-14T09:10:22.804Z,17.70
2018-09-14T09:12:51.165Z,18.00
2018-09-14T09:15:20.384Z,18.20
2018-09-14T09:17:48.813Z,18.50
2018-09-14T09:20:17.362Z,18.80
2018-09-14T09:22:45.926Z,18.90
2018-09-14T09:25:14.267Z,19.20
2018-09-14T09:27:42.625Z,19.00
2018-09-14T09:30:11.041Z,18.80
2018-09-14T09:32:39.465Z,18.60
2018-09-14T09:35:07.880Z,18.80
2018-09-14T09:37:36.607Z,18.90
2018-09-14T09:40:04.958Z,18.90
2018-09-14T09:42:33.794Z,18.70
2018-09-14T09:45:02.644Z,18.50
2018-09-14T09:47:31.004Z,18.50
2018-09-14T09:49:59.349Z,18.70
2018-09-14T09:52:27.720Z,19.00
2018-09-14T09:54:56.400Z,19.00
2018-09-14T09:57:24.741Z,19.10
2018-09-14T09:59:53.071Z,19.20
2018-09-14T10:02:26.967Z,19.50
2018-09-14T10:05:00.550Z,19.60
2018-09-14T10:07:28.936Z,19.90
2018-09-14T10:09:57.533Z,20.00
2018-09-14T10:12:25.871Z,19.90
2018-09-14T10:14:54.274Z,19.60
2018-09-14T10:17:22.666Z,19.50
2018-09-14T10:19:51.104Z,19.50
2018-09-14T10:22:19.654Z,19.60
2018-09-14T10:24:47.989Z,19.60
2018-09-14T10:27:16.381Z,19.90
2018-09-14T10:29:44.803Z,19.80
2018-09-14T10:32:13.233Z,19.40
2018-09-14T10:34:41.649Z,19.30
2018-09-14T10:37:10.048Z,19.40
2018-09-14T10:39:38.416Z,19.60
2018-09-14T10:42:06.878Z,19.70
2018-09-14T10:44:35.228Z,19.80
2018-09-14T10:47:03.752Z,19.90
2018-09-14T10:49:32.142Z,19.90
2018-09-14T10:52:00.508Z,20.10
2018-09-14T10:54:29.167Z,20.70
2018-09-14T10:56:57.518Z,20.80
2018-09-14T10:59:25.906Z,20.80
2018-09-14T11:01:54.213Z,21.00
2018-09-14T11:04:22.656Z,20.90
2018-09-14T11:06:51.121Z,21.50
2018-09-14T11:09:19.478Z,21.90
2018-09-14T11:11:47.883Z,22.00
2018-09-14T11:14:16.250Z,21.80
2018-09-14T11:16:44.640Z,21.90
2018-09-14T11:19:12.997Z,21.80
2018-09-14T11:21:41.377Z,21.90
2018-09-14T11:24:09.753Z,22.00
2018-09-14T11:26:38.162Z,21.70
2018-09-14T11:29:06.513Z,21.90
2018-09-14T11:31:34.849Z,21.50
2018-09-14T11:34:03.308Z,21.10
2018-09-14T11:36:31.720Z,20.90
2018-09-14T11:39:00.145Z,20.90
2018-09-14T11:41:28.541Z,21.10
2018-09-14T11:43:56.933Z,21.10
2018-09-14T11:46:25.357Z,20.80
2018-09-14T11:48:53.699Z,20.60
2018-09-14T11:51:22.125Z,20.80
2018-09-14T11:53:50.440Z,20.90
2018-09-14T11:56:18.791Z,21.20
2018-09-14T11:58:47.306Z,21.40
2018-09-14T12:01:15.733Z,21.50
2018-09-14T12:03:44.193Z,21.80
2018-09-14T12:06:12.534Z,21.90
2018-09-14T12:08:40.882Z,21.90
2018-09-14T12:11:09.273Z,21.90
2018-09-14T12:13:37.713Z,21.90
2018-09-14T12:16:06.086Z,21.70
2018-09-14T12:18:34.475Z,21.50
2018-09-14T12:21:02.957Z,21.60
2018-09-14T12:23:31.382Z,21.40
2018-09-14T12:26:00.099Z,21.30
2018-09-14T12:28:28.518Z,20.90
2018-09-14T12:30:57.306Z,20.70
2018-09-14T12:33:25.692Z,20.40
2018-09-14T12:35:54.068Z,20.40
2018-09-14T12:38:22.480Z,20.30
2018-09-14T12:40:50.879Z,20.10
2018-09-14T12:43:19.259Z,20.30
2018-09-14T12:45:47.581Z,20.40
2018-09-14T12:48:15.997Z,20.20
2018-09-14T12:50:44.405Z,20.50
2018-09-14T12:53:12.727Z,21.00
2018-09-14T12:55:41.072Z,21.40
2018-09-14T12:58:09.571Z,21.20
2018-09-14T13:00:37.924Z,21.20
2018-09-14T13:03:06.400Z,21.20
2018-09-14T13:05:34.751Z,21.70
2018-09-14T13:08:03.192Z,22.50
2018-09-14T13:10:35.562Z,23.20
2018-09-14T13:13:05.206Z,23.70
2018-09-14T13:15:33.557Z,23.30
2018-09-14T13:18:01.933Z,22.40
2018-09-14T13:20:30.317Z,22.40
2018-09-14T13:22:58.783Z,23.40
2018-09-14T13:25:27.343Z,24.60
2018-09-14T13:27:55.728Z,24.50
2018-09-14T13:30:24.191Z,24.20
2018-09-14T13:32:53.678Z,24.10
2018-09-14T13:35:23.565Z,23.20
2018-09-14T13:37:53.705Z,22.50
2018-09-14T13:40:23.000Z,22.10
2018-09-14T13:42:52.010Z,21.70
2018-09-14T13:45:21.513Z,21.50
2018-09-14T13:47:49.932Z,22.30
2018-09-14T13:50:18.913Z,23.70
2018-09-14T13:52:47.300Z,24.70
2018-09-14T13:55:17.429Z,25.30
2018-09-14T13:57:46.757Z,25.00
2018-09-14T14:00:15.837Z,24.30
2018-09-14T14:02:44.265Z,23.60
2018-09-14T14:05:12.681Z,22.80
2018-09-14T14:07:41.043Z,22.40
2018-09-14T14:10:15.440Z,22.30
2018-09-14T14:12:43.884Z,22.00
2018-09-14T14:15:19.146Z,21.80
2018-09-14T14:17:47.645Z,21.40
2018-09-14T14:20:16.206Z,21.20
2018-09-14T14:22:45.464Z,21.10
2018-09-14T14:25:13.898Z,20.90
2018-09-14T14:27:42.423Z,20.80
2018-09-14T14:30:12.312Z,20.70
2018-09-14T14:32:40.807Z,20.60
2018-09-14T14:35:09.354Z,20.50
2018-09-14T14:37:37.698Z,20.40
2018-09-14T14:40:06.115Z,20.20
2018-09-14T14:42:34.518Z,20.20
2018-09-14T14:45:02.934Z,20.40
2018-09-14T14:47:31.361Z,20.40
2018-09-14T14:49:59.752Z,20.20
2018-09-14T14:52:28.102Z,20.00
2018-09-14T14:54:57.790Z,20.10
2018-09-14T14:57:26.197Z,20.20
2018-09-14T14:59:54.568Z,20.20
2018-09-14T15:02:22.881Z,20.20
2018-09-14T15:04:54.551Z,20.20
2018-09-14T15:07:23.043Z,20.20
2018-09-14T15:09:51.408Z,20.30
2018-09-14T15:12:19.806Z,20.20
2018-09-14T15:14:48.970Z,19.90
2018-09-14T15:17:17.385Z,19.90
2018-09-14T15:19:45.764Z,19.90
2018-09-14T15:22:14.100Z,19.90
2018-09-14T15:24:42.883Z,19.90
2018-09-14T15:27:11.323Z,19.80
2018-09-14T15:29:39.786Z,19.80
2018-09-14T15:32:08.178Z,19.80
2018-09-14T15:34:36.820Z,19.90
2018-09-14T15:37:05.534Z,20.00
2018-09-14T15:39:34.253Z,19.90
2018-09-14T15:42:03.283Z,20.00
2018-09-14T15:44:32.158Z,20.10
2018-09-14T15:47:07.303Z,20.20
2018-09-14T15:49:35.735Z,20.20
2018-09-14T15:52:04.197Z,20.20
2018-09-14T15:54:32.577Z,20.00
2018-09-14T15:57:00.979Z,20.00
2018-09-14T15:59:29.339Z,20.00
2018-09-14T16:01:57.921Z,20.50
2018-09-14T16:04:26.256Z,20.80
2018-09-14T16:06:56.021Z,20.50
2018-09-14T16:09:24.457Z,20.20
2018-09-14T16:11:52.913Z,19.80
2018-09-14T16:14:21.270Z,19.60
2018-09-14T16:16:49.837Z,19.40
2018-09-14T16:19:18.186Z,19.30
2018-09-14T16:21:46.660Z,19.10
2018-09-14T16:24:15.042Z,18.90
2018-09-14T16:26:43.458Z,18.90
2018-09-14T16:29:11.820Z,18.80
2018-09-14T16:31:40.213Z,18.80
2018-09-14T16:34:08.648Z,18.70
2018-09-14T16:36:37.037Z,18.80
2018-09-14T16:39:07.938Z,18.70
2018-09-14T16:41:36.321Z,18.60
2018-09-14T16:44:04.976Z,18.60
2018-09-14T16:46:35.923Z,18.50
2018-09-14T16:49:04.459Z,18.30
2018-09-14T16:51:32.819Z,18.20
2018-09-14T16:54:01.185Z,18.20
2018-09-14T16:56:29.528Z,18.20
2018-09-14T16:58:58.005Z,18.30
2018-09-14T17:01:26.404Z,18.30
2018-09-14T17:03:54.841Z,18.30
2018-09-14T17:06:23.244Z,18.40
2018-09-14T17:08:51.664Z,18.40
2018-09-14T17:11:20.452Z,18.40
2018-09-14T17:13:49.051Z,18.30
2018-09-14T17:16:17.444Z,18.20
2018-09-14T17:18:45.952Z,18.20
2018-09-14T17:21:14.357Z,18.20
2018-09-14T17:23:42.917Z,18.10
2018-09-14T17:26:11.274Z,18.00
2018-09-14T17:28:39.715Z,18.00
2018-09-14T17:31:08.197Z,17.90
2018-09-14T17:33:37.115Z,17.90
2018-09-14T17:36:05.858Z,17.90
2018-09-14T17:38:34.482Z,17.90
2018-09-14T17:41:03.032Z,17.80
2018-09-14T17:43:31.508Z,17.80
2018-09-14T17:46:00.118Z,17.70
2018-09-14T17:48:28.527Z,17.60
2018-09-14T17:50:57.681Z,17.60
2018-09-14T17:53:26.152Z,17.60
2018-09-14T17:55:54.946Z,17.50
2018-09-14T17:58:23.549Z,17.50
2018-09-14T18:00:52.071Z,17.50
2018-09-14T18:03:21.214Z,17.40
2018-09-14T18:05:49.453Z,17.40
2018-09-14T18:08:17.836Z,17.30
2018-09-14T18:10:46.243Z,17.20
2018-09-14T18:13:14.651Z,17.20
2018-09-14T18:15:43.114Z,17.10
2018-09-14T18:18:11.515Z,17.00
2018-09-14T18:20:39.966Z,17.00
2018-09-14T18:23:08.488Z,17.00
2018-09-14T18:25:36.936Z,16.90
2018-09-14T18:28:05.704Z,16.80
2018-09-14T18:30:34.122Z,16.80
2018-09-14T18:33:02.700Z,16.90
2018-09-14T18:35:31.713Z,16.80
2018-09-14T18:38:00.911Z,16.80
2018-09-14T18:40:29.875Z,16.70
2018-09-14T18:42:59.625Z,16.60
2018-09-14T18:45:28.366Z,16.60
2018-09-14T18:47:57.555Z,16.40
2018-09-14T18:50:26.720Z,16.50
2018-09-14T18:52:55.948Z,16.40
2018-09-14T18:55:24.696Z,16.40
2018-09-14T18:57:53.370Z,16.20
2018-09-14T19:00:23.049Z,16.00
2018-09-14T19:02:51.729Z,15.90
2018-09-14T19:05:21.026Z,15.80
2018-09-14T19:07:49.801Z,15.60
2018-09-14T19:10:18.276Z,15.60
2018-09-14T19:12:46.718Z,15.50
2018-09-14T19:15:15.427Z,15.40
2018-09-14T19:17:44.262Z,15.30
2018-09-14T19:20:12.766Z,15.20
2018-09-14T19:22:41.628Z,15.20
2018-09-14T19:25:10.186Z,15.00
2018-09-14T19:27:39.015Z,14.90
2018-09-14T19:30:07.757Z,14.80
2018-09-14T19:32:36.549Z,14.70
2018-09-14T19:35:05.216Z,14.70
2018-09-14T19:37:33.984Z,14.70
2018-09-14T19:40:02.463Z,14.60
2018-09-14T19:42:31.217Z,14.60
2018-09-14T19:44:59.953Z,14.50
2018-09-14T19:47:29.644Z,14.50
2018-09-14T19:49:58.479Z,14.40
2018-09-14T19:52:27.348Z,14.40
2018-09-14T19:54:56.534Z,14.30
2018-09-14T19:57:25.071Z,14.30
2018-09-14T19:59:53.493Z,14.40
2018-09-14T20:02:22.106Z,14.40
2018-09-14T20:04:50.879Z,14.40
2018-09-14T20:07:20.303Z,14.40
2018-09-14T20:09:48.730Z,14.10
2018-09-14T20:12:17.241Z,13.50
2018-09-14T20:14:46.901Z,13.40
2018-09-14T20:17:16.273Z,13.40
2018-09-14T20:19:44.838Z,13.40
2018-09-14T20:22:13.304Z,13.40
2018-09-14T20:24:41.811Z,13.40
2018-09-14T20:27:10.758Z,13.50
2018-09-14T20:29:39.177Z,13.40
2018-09-14T20:32:07.522Z,13.50
2018-09-14T20:34:36.055Z,13.50
2018-09-14T20:37:04.514Z,13.40
2018-09-14T20:39:32.862Z,13.30
2018-09-14T20:42:01.277Z,13.10
2018-09-14T20:44:29.910Z,13.00
2018-09-14T20:46:58.367Z,13.00
2018-09-14T20:49:26.847Z,13.10
2018-09-14T20:51:56.216Z,13.10
2018-09-14T20:54:24.572Z,13.20
2018-09-14T20:56:52.952Z,13.30
2018-09-14T20:59:21.424Z,13.30
2018-09-14T21:01:49.818Z,13.20
2018-09-14T21:04:18.344Z,13.10
2018-09-14T21:06:46.664Z,13.10
2018-09-14T21:09:15.081Z,13.00
2018-09-14T21:11:43.525Z,13.00
2018-09-14T21:14:11.902Z,13.00
2018-09-14T21:16:40.319Z,13.00
2018-09-14T21:19:08.738Z,13.00
2018-09-14T21:21:37.089Z,12.90
2018-09-14T21:24:05.468Z,12.80
2018-09-14T21:26:33.816Z,12.70
2018-09-14T21:29:02.319Z,12.70
2018-09-14T21:31:30.624Z,12.60
2018-09-14T21:33:59.033Z,12.50
2018-09-14T21:36:27.524Z,12.40
2018-09-14T21:38:55.914Z,12.40
2018-09-14T21:41:24.307Z,12.30
2018-09-14T21:43:52.661Z,12.30
2018-09-14T21:46:21.041Z,12.20
2018-09-14T21:48:49.417Z,12.20
2018-09-14T21:51:17.740Z,12.20
2018-09-14T21:53:46.124Z,12.20
2018-09-14T21:56:14.426Z,12.20
2018-09-14T21:58:42.789Z,12.20
2018-09-14T22:01:14.939Z,12.20
2018-09-14T22:03:44.800Z,12.30
2018-09-14T22:06:13.158Z,12.30
2018-09-14T22:08:41.560Z,12.30
2018-09-14T22:11:09.892Z,12.20
2018-09-14T22:13:38.237Z,12.20
2018-09-14T22:16:07.043Z,12.00
2018-09-14T22:18:36.228Z,12.00
2018-09-14T22:21:04.790Z,11.80
2018-09-14T22:23:33.110Z,11.70
2018-09-14T22:26:01.464Z,11.60
2018-09-14T22:28:29.802Z,11.50
2018-09-14T22:30:58.166Z,11.40
2018-09-14T22:33:26.503Z,11.50
2018-09-14T22:35:54.846Z,11.50
2018-09-14T22:38:23.241Z,11.50
2018-09-14T22:40:51.599Z,11.30
2018-09-14T22:43:20.184Z,11.30
2018-09-14T22:45:48.906Z,11.20
2018-09-14T22:48:17.250Z,11.20
2018-09-14T22:50:45.707Z,11.10
2018-09-14T22:53:14.414Z,10.90
2018-09-14T22:55:42.761Z,10.90
2018-09-14T22:58:11.253Z,10.90
2018-09-14T23:00:45.015Z,10.80
2018-09-14T23:03:13.393Z,10.80
2018-09-14T23:05:42.047Z,10.60
2018-09-14T23:08:10.487Z,10.60
2018-09-14T23:10:38.790Z,10.50
2018-09-14T23:13:07.160Z,10.40
2018-09-14T23:15:35.624Z,10.40
2018-09-14T23:18:04.818Z,10.30
2018-09-14T23:20:33.103Z,10.40
2018-09-14T23:23:01.424Z,10.30
2018-09-14T23:25:29.747Z,10.40
2018-09-14T23:27:58.140Z,10.30
2018-09-14T23:30:26.581Z,10.30
2018-09-14T23:32:54.941Z,10.30
2018-09-14T23:35:23.513Z,10.40
2018-09-14T23:37:51.851Z,10.40
2018-09-14T23:40:20.244Z,10.40
2018-09-14T23:42:48.582Z,10.40
2018-09-14T23:45:17.039Z,10.30
2018-09-14T23:47:45.371Z,10.30
2018-09-14T23:50:13.724Z,10.20
2018-09-14T23:52:42.134Z,10.10
2018-09-14T23:55:10.685Z,10.00
2018-09-14T23:57:39.027Z,9.90
